Time;durP1;ratioP1;P1;durP2;ratioP2;P2;SDS_P1;SDS_P2;PMS_P1;PMS_P2;Temp;Humidity;BMP_temperature;BMP_pressure;BME280_temperature;BME280_humidity;BME280_pressure;Samples;Min_cycle;Max_cycle;Signal;HPM_P1;HPM_P2
2023/09/02 00:00:09;;;;;;;1.07;0.70;;;;;;;19.15;100.00;101696.19;2073598;28;20534;-67
2023/09/02 00:01:09;;;;;;;0.37;0.30;;;;;;;19.70;100.00;101784.22;2073577;28;20181;-66
2023/09/02 00:02:10;;;;;;;0.30;0.30;;;;;;;19.72;100.00;101781.69;2073508;28;20177;-66
2023/09/02 00:03:10;;;;;;;0.43;0.30;;;;;;;19.72;100.00;101778.91;2073491;28;20189;-67
2023/09/02 00:04:11;;;;;;;0.73;0.60;;;;;;;19.73;100.00;101775.63;2073515;28;20205;-67
2023/09/02 00:05:11;;;;;;;0.80;0.80;;;;;;;19.73;100.00;101781.25;2073436;28;20178;-67
2023/09/02 00:06:11;;;;;;;2.10;0.60;;;;;;;19.43;100.00;101736.34;2073339;28;20217;-67
2023/09/02 00:07:12;;;;;;;0.70;0.70;;;;;;;19.66;100.00;101770.28;2073401;28;20249;-67
2023/09/02 00:08:12;;;;;;;0.60;0.40;;;;;;;19.72;100.00;101785.31;2073485;28;20203;-66
2023/09/02 00:09:13;;;;;;;0.50;0.40;;;;;;;19.71;100.00;101782.97;2073449;28;20202;-67
2023/09/02 00:10:13;;;;;;;0.50;0.50;;;;;;;19.68;100.00;101792.31;2065445;28;20186;-67
2023/09/02 00:11:14;;;;;;;0.50;0.50;;;;;;;19.62;100.00;101789.34;2071527;28;20196;-66
2023/09/02 00:12:14;;;;;;;0.20;0.20;;;;;;;19.66;100.00;101787.16;2073465;28;20202;-66
2023/09/02 00:13:14;;;;;;;0.20;0.20;;;;;;;19.66;100.00;101783.56;2073385;28;20716;-67
2023/09/02 00:14:15;;;;;;;0.50;0.50;;;;;;;19.64;100.00;101784.03;2073472;28;20721;-66
2023/09/02 00:15:16;;;;;;;0.30;0.30;;;;;;;19.59;100.00;101783.91;2073173;28;20260;-67
2023/09/02 00:16:17;;;;;;;0.40;0.30;;;;;;;19.50;100.00;101761.38;2073484;28;20698;-67
2023/09/02 00:17:17;;;;;;;0.33;0.33;;;;;;;19.07;100.00;101700.53;2073387;28;20201;-67
2023/09/02 00:18:17;;;;;;;0.37;0.30;;;;;;;19.56;100.00;101777.16;2073468;28;20212;-66
2023/09/02 00:19:18;;;;;;;0.60;0.50;;;;;;;19.57;100.00;101784.34;2073411;28;20553;-66
2023/09/02 00:20:20;;;;;;;0.53;0.53;;;;;;;19.53;100.00;101775.28;2073309;28;20257;-66
2023/09/02 00:21:20;;;;;;;0.53;0.53;;;;;;;19.49;100.00;101774.66;2073321;28;20173;-66
2023/09/02 00:22:21;;;;;;;0.20;0.13;;;;;;;19.46;100.00;101775.59;2073459;28;20945;-67
2023/09/02 00:23:21;;;;;;;0.30;0.30;;;;;;;19.41;100.00;101764.97;2073327;28;20288;-67
2023/09/02 00:24:21;;;;;;;0.30;0.30;;;;;;;19.33;100.00;101757.28;2073398;28;20181;-66
2023/09/02 00:25:24;;;;;;;0.30;0.30;;;;;;;19.46;100.00;101775.59;2073327;28;20206;-66
2023/09/02 00:26:25;;;;;;;0.20;0.20;;;;;;;19.41;100.00;101776.22;2073211;28;20698;-67
2023/09/02 00:27:25;;;;;;;0.37;0.30;;;;;;;19.29;100.00;101749.00;2073380;28;20809;-67
2023/09/02 00:28:26;;;;;;;0.30;0.27;;;;;;;19.47;100.00;101779.16;2073382;28;20678;-67
2023/09/02 00:29:26;;;;;;;0.50;0.50;;;;;;;19.43;100.00;101772.91;2073068;28;20220;-67
2023/09/02 00:30:26;;;;;;;0.60;0.50;;;;;;;19.28;100.00;101753.06;2073349;28;20264;-66
2023/09/02 00:31:28;;;;;;;0.50;0.50;;;;;;;19.46;100.00;101775.59;2068349;28;20182;-67
2023/09/02 00:32:29;;;;;;;0.60;0.60;;;;;;;19.13;100.00;101742.84;2065234;28;20568;-67
2023/09/02 00:33:29;;;;;;;0.77;0.77;;;;;;;19.34;100.00;101778.53;2065201;28;20418;-66
2023/09/02 00:34:30;;;;;;;0.33;0.30;;;;;;;19.37;100.00;101775.56;2065269;28;20179;-67
2023/09/02 00:35:30;;;;;;;0.30;0.30;;;;;;;19.37;100.00;101781.19;2065136;28;20558;-66
2023/09/02 00:36:32;;;;;;;0.40;0.40;;;;;;;19.33;100.00;101780.53;2072796;28;20197;-67
2023/09/02 00:37:32;;;;;;;0.80;0.80;;;;;;;19.26;100.00;101760.38;2073348;28;20170;-67
2023/09/02 00:38:33;;;;;;;0.47;0.47;;;;;;;19.07;100.00;101731.44;2072567;28;20491;-66
2023/09/02 00:39:33;;;;;;;0.83;0.63;;;;;;;19.36;100.00;101784.47;2073101;28;20173;-66
2023/09/02 00:40:35;;;;;;;0.30;0.30;;;;;;;19.32;100.00;101781.81;2073279;28;20174;-66
2023/09/02 00:41:55;;;;;;;0.20;0.20;;;;;;;19.32;100.00;101783.81;2073330;28;20644;-66
2023/09/02 00:42:57;;;;;;;0.47;0.47;;;;;;;19.30;100.00;101786.31;2065145;28;20413;-66
2023/09/02 00:43:59;;;;;;;0.30;0.30;;;;;;;19.29;100.00;101790.38;2065148;28;20417;-66
2023/09/02 00:44:59;;;;;;;0.50;0.50;;;;;;;18.76;100.00;101696.22;2065184;28;20560;-67
2023/09/02 00:46:00;;;;;;;0.57;0.43;;;;;;;19.28;100.00;101785.97;2065112;28;20468;-66
2023/09/02 00:47:02;;;;;;;0.50;0.27;;;;;;;19.32;100.00;101786.63;2069048;28;20200;-67
2023/09/02 00:48:03;;;;;;;0.33;0.30;;;;;;;19.31;100.00;101779.44;2073355;28;20181;-66
2023/09/02 00:49:03;;;;;;;0.40;0.40;;;;;;;19.29;100.00;101791.16;2072868;28;20456;-67
2023/09/02 00:50:04;;;;;;;0.20;0.20;;;;;;;19.31;100.00;101787.88;2073203;28;20412;-67
2023/09/02 00:51:05;;;;;;;0.43;0.40;;;;;;;19.30;100.00;101789.13;2073223;28;20169;-67
2023/09/02 00:52:05;;;;;;;0.43;0.43;;;;;;;19.28;100.00;101781.16;2073200;28;20425;-67
2023/09/02 00:53:06;;;;;;;0.20;0.20;;;;;;;18.92;100.00;101722.03;2066766;28;20182;-67
2023/09/02 00:54:06;;;;;;;1.30;0.40;;;;;;;19.33;100.00;101796.63;2065155;28;20179;-66
2023/09/02 00:55:07;;;;;;;0.70;0.70;;;;;;;19.36;100.00;101790.09;2068056;28;20181;-66
2023/09/02 00:56:07;;;;;;;0.40;0.30;;;;;;;19.35;100.00;101792.09;2073211;28;20181;-66
2023/09/02 00:57:08;;;;;;;0.57;0.40;;;;;;;19.16;100.00;101758.75;2073164;28;20556;-66
2023/09/02 00:58:08;;;;;;;0.40;0.40;;;;;;;19.38;100.00;101798.81;2073344;28;20260;-66
2023/09/02 00:59:09;;;;;;;0.70;0.70;;;;;;;19.37;100.00;101798.06;2073235;28;20166;-66
2023/09/02 01:00:13;;;;;;;0.67;0.50;;;;;;;19.39;100.00;101794.78;2073302;28;20178;-66
2023/09/02 01:01:13;;;;;;;1.87;1.20;;;;;;;19.35;100.00;101792.09;2068806;28;20182;-66
2023/09/02 01:02:14;;;;;;;0.40;0.30;;;;;;;19.40;100.00;101791.47;2064440;28;20413;-66
2023/09/02 01:03:14;;;;;;;0.50;0.40;;;;;;;19.42;100.00;101793.84;2064559;28;20182;-66
2023/09/02 01:04:15;;;;;;;0.50;0.50;;;;;;;19.41;100.00;101793.06;2065136;28;20216;-66
2023/09/02 01:05:16;;;;;;;0.43;0.37;;;;;;;19.41;100.00;101793.06;2072522;28;20184;-66
2023/09/02 01:06:16;;;;;;;0.40;0.40;;;;;;;19.42;100.00;101793.84;2073214;28;20200;-66
2023/09/02 01:07:18;;;;;;;0.30;0.30;;;;;;;19.29;100.00;101767.91;2073198;28;20177;-67
2023/09/02 01:08:19;;;;;;;0.53;0.53;;;;;;;19.42;100.00;101794.63;2073181;28;20173;-66
2023/09/02 01:09:19;;;;;;;0.20;0.20;;;;;;;19.42;100.00;101793.84;2072066;28;20467;-67
2023/09/02 01:10:21;;;;;;;0.20;0.20;;;;;;;19.45;100.00;101793.69;2065090;28;20175;-66
2023/09/02 01:11:21;;;;;;;0.50;0.50;;;;;;;19.43;100.00;101789.78;2065008;28;20178;-66
2023/09/02 01:12:22;;;;;;;0.50;0.50;;;;;;;19.42;100.00;101800.25;2071070;28;21005;-66
2023/09/02 01:13:22;;;;;;;0.43;0.43;;;;;;;19.39;100.00;101795.56;2073131;28;20655;-67
2023/09/02 01:14:22;;;;;;;0.27;0.27;;;;;;;19.39;100.00;101797.59;2073200;28;20221;-66
2023/09/02 01:15:23;;;;;;;0.80;0.47;;;;;;;19.23;100.00;101786.59;2072879;28;20228;-67
2023/09/02 01:16:23;;;;;;;0.50;0.50;;;;;;;19.06;100.00;101755.16;2073235;28;20184;-66
2023/09/02 01:17:24;;;;;;;0.40;0.40;;;;;;;19.31;100.00;101799.13;2073099;28;20177;-66
2023/09/02 01:18:25;;;;;;;0.30;0.30;;;;;;;19.32;100.00;101797.88;2073228;28;20184;-67
2023/09/02 01:19:28;;;;;;;0.10;0.10;;;;;;;19.11;100.00;101765.78;2073081;28;20176;-66
2023/09/02 01:20:47;;;;;;;0.27;0.20;;;;;;;19.30;100.00;101801.13;2073098;28;20424;-66
2023/09/02 01:21:59;;;;;;;0.50;0.50;;;;;;;19.27;100.00;101795.66;2073183;28;20181;-66
2023/09/02 01:23:18;;;;;;;0.40;0.40;;;;;;;19.28;100.00;101797.22;2073101;28;20421;-67
2023/09/02 01:24:55;;;;;;;0.30;0.30;;;;;;;19.28;100.00;101795.22;2073160;28;20504;-67
2023/09/02 01:26:09;;;;;;;0.30;0.30;;;;;;;19.27;100.00;101796.47;2073100;28;20930;-66
2023/09/02 01:27:20;;;;;;;0.20;0.20;;;;;;;19.19;100.00;101797.97;2072950;28;20440;-66
2023/09/02 01:28:34;;;;;;;0.50;0.20;;;;;;;19.12;100.00;101789.03;2073181;28;20405;-66
2023/09/02 01:29:40;;;;;;;0.83;0.67;;;;;;;19.20;100.00;101807.19;2073143;28;20530;-66
2023/09/02 01:30:45;;;;;;;0.50;0.50;;;;;;;19.23;100.00;101800.66;2073169;28;20894;-66
2023/09/02 01:31:50;;;;;;;0.60;0.60;;;;;;;18.88;100.00;101751.50;2073058;28;20397;-67
2023/09/02 01:32:53;;;;;;;0.40;0.40;;;;;;;19.24;100.00;101805.81;2073056;28;20846;-67
2023/09/02 01:33:53;;;;;;;0.33;0.30;;;;;;;19.03;100.00;101778.53;2073095;28;20428;-67
2023/09/02 01:34:55;;;;;;;0.40;0.40;;;;;;;19.23;100.00;101803.47;2073095;28;20448;-66
2023/09/02 01:35:58;;;;;;;0.40;0.40;;;;;;;19.21;100.00;101809.53;2073126;28;20695;-66
2023/09/02 01:37:00;;;;;;;0.70;0.60;;;;;;;18.36;100.00;101679.38;2073081;28;20424;-66
2023/09/02 01:38:03;;;;;;;0.33;0.33;;;;;;;19.19;100.00;101817.63;2073014;28;20424;-67
2023/09/02 01:39:05;;;;;;;0.40;0.40;;;;;;;19.07;100.00;101793.25;2072948;28;20481;-67
2023/09/02 01:40:09;;;;;;;0.17;0.17;;;;;;;19.18;100.00;101815.31;2073120;28;20421;-66
2023/09/02 01:41:12;;;;;;;0.30;0.30;;;;;;;19.14;100.00;101807.00;2073111;28;20535;-67
2023/09/02 01:42:14;;;;;;;0.30;0.30;;;;;;;19.11;100.00;101810.75;2073109;28;20424;-67
2023/09/02 01:43:20;;;;;;;0.40;0.30;;;;;;;18.56;100.00;101726.69;2072905;28;20431;-66
2023/09/02 01:44:21;;;;;;;0.50;0.50;;;;;;;19.08;100.00;101817.28;2072869;28;20444;-66
2023/09/02 01:45:26;;;;;;;0.30;0.30;;;;;;;19.07;100.00;101809.31;2073042;28;20424;-66
2023/09/02 01:46:26;;;;;;;0.40;0.40;;;;;;;19.05;100.00;101809.00;2072349;28;20424;-67
2023/09/02 01:47:28;;;;;;;0.63;0.40;;;;;;;19.05;100.00;101811.81;2072416;28;20471;-66
2023/09/02 01:48:30;;;;;;;0.43;0.37;;;;;;;19.02;100.00;101810.69;2073089;28;20213;-67
2023/09/02 01:49:30;;;;;;;0.37;0.37;;;;;;;19.02;100.00;101809.91;2073032;28;20515;-67
2023/09/02 01:50:33;;;;;;;0.30;0.30;;;;;;;18.92;100.00;101795.06;2074089;28;20428;-66
2023/09/02 01:51:34;;;;;;;0.73;0.50;;;;;;;18.99;100.00;101806.00;2074443;28;20279;-66
2023/09/02 01:52:35;;;;;;;0.73;0.70;;;;;;;18.98;100.00;101810.06;2074496;28;20466;-67
2023/09/02 01:53:36;;;;;;;1.33;0.73;;;;;;;18.91;100.00;101804.72;2074477;28;20236;-67
2023/09/02 01:54:36;;;;;;;0.20;0.20;;;;;;;18.76;100.00;101786.06;2074536;28;20550;-67
2023/09/02 01:55:37;;;;;;;0.57;0.40;;;;;;;18.98;100.00;101815.66;2074551;28;20194;-67
2023/09/02 01:56:38;;;;;;;0.30;0.30;;;;;;;18.96;100.00;101806.94;2074533;28;20177;-67
2023/09/02 01:57:39;;;;;;;0.40;0.40;;;;;;;18.89;100.00;101809.25;2074500;28;20181;-67
2023/09/02 01:58:40;;;;;;;0.30;0.30;;;;;;;18.89;100.00;101803.63;2074305;28;20253;-67
2023/09/02 01:59:40;;;;;;;0.90;0.30;;;;;;;18.90;100.00;101808.78;2074419;28;20500;-66
2023/09/02 02:00:41;;;;;;;0.20;0.20;;;;;;;18.94;100.00;101811.44;2074434;28;20173;-66
2023/09/02 02:01:41;;;;;;;0.50;0.50;;;;;;;18.91;100.00;101810.34;2074572;28;20185;-67
2023/09/02 02:02:42;;;;;;;0.60;0.60;;;;;;;18.95;100.00;101815.81;2074388;28;20594;-66
2023/09/02 02:03:50;;;;;;;0.60;0.40;;;;;;;18.93;100.00;101837.97;2074366;28;20173;-67
2023/09/02 02:04:55;;;;;;;0.83;0.53;;;;;;;18.96;100.00;101811.75;2074565;28;20162;-66
2023/09/02 02:05:58;;;;;;;0.30;0.30;;;;;;;18.96;100.00;101812.56;2074302;28;20432;-67
2023/09/02 02:07:20;;;;;;;0.87;0.40;;;;;;;18.97;100.00;101813.31;2074453;28;20499;-66
2023/09/02 02:08:44;;;;;;;0.60;0.60;;;;;;;18.86;100.00;101794.09;2074321;28;20507;-66
2023/09/02 02:09:52;;;;;;;0.30;0.30;;;;;;;18.94;100.00;101812.22;2074399;28;20420;-66
2023/09/02 02:10:55;;;;;;;0.20;0.20;;;;;;;18.27;100.00;101717.78;2074443;28;20863;-66
2023/09/02 02:11:56;;;;;;;0.40;0.40;;;;;;;18.87;100.00;101809.69;2074398;28;20436;-66
2023/09/02 02:13:01;;;;;;;1.13;0.80;;;;;;;18.83;100.00;101811.84;2074441;28;20423;-66
2023/09/02 02:14:02;;;;;;;1.03;0.93;;;;;;;18.75;100.00;101802.16;2074392;28;20420;-66
2023/09/02 02:15:04;;;;;;;0.20;0.20;;;;;;;18.62;100.00;101795.06;2074073;28;20472;-67
2023/09/02 02:16:04;;;;;;;0.90;0.83;;;;;;;18.69;100.00;101815.22;2074402;28;20906;-67
2023/09/02 02:17:06;;;;;;;0.57;0.57;;;;;;;18.62;100.00;101798.63;2074273;28;20805;-67
2023/09/02 02:18:06;;;;;;;1.60;0.90;;;;;;;18.66;100.00;101812.53;2074374;28;20174;-66
2023/09/02 02:19:07;;;;;;;1.07;0.87;;;;;;;18.67;100.00;101814.13;2074422;28;20491;-66
2023/09/02 02:20:11;;;;;;;0.43;0.43;;;;;;;18.69;100.00;101806.00;2074395;28;20174;-67
2023/09/02 02:21:12;;;;;;;0.50;0.50;;;;;;;18.69;100.00;101806.81;2074403;28;20191;-66
2023/09/02 02:22:12;;;;;;;1.30;0.30;;;;;;;18.69;100.00;101811.63;2074303;28;20915;-66
2023/09/02 02:23:13;;;;;;;1.60;0.40;;;;;;;18.70;100.00;101816.78;2074299;28;20260;-66
2023/09/02 02:24:14;;;;;;;0.37;0.37;;;;;;;18.69;100.00;101803.22;2070566;28;20269;-67
2023/09/02 02:25:15;;;;;;;0.30;0.30;;;;;;;18.66;100.00;101816.13;2066218;28;20560;-66
2023/09/02 02:26:16;;;;;;;0.47;0.30;;;;;;;18.62;100.00;101832.34;2066108;28;20472;-67
2023/09/02 02:27:16;;;;;;;0.30;0.30;;;;;;;18.62;100.00;101817.53;2066243;28;20738;-67
2023/09/02 02:28:17;;;;;;;0.60;0.60;;;;;;;18.61;100.00;101818.75;2066162;28;20934;-67
2023/09/02 02:29:18;;;;;;;0.40;0.40;;;;;;;18.49;100.00;101802.78;2066079;28;20207;-68
2023/09/02 02:30:18;;;;;;;0.50;0.50;;;;;;;18.01;100.00;101731.19;2066164;28;20425;-67
2023/09/02 02:31:19;;;;;;;0.43;0.30;;;;;;;18.54;100.00;101824.63;2066154;28;20183;-67
2023/09/02 02:32:20;;;;;;;0.27;0.27;;;;;;;18.49;100.00;101822.44;2066108;28;20198;-67
2023/09/02 02:33:20;;;;;;;0.20;0.20;;;;;;;18.48;100.00;101821.63;2066110;28;20606;-66
2023/09/02 02:34:24;;;;;;;0.40;0.40;;;;;;;18.47;100.00;101827.72;2066144;28;20417;-66
2023/09/02 02:35:31;;;;;;;1.13;0.67;;;;;;;18.36;100.00;101816.88;2066097;28;20174;-67
2023/09/02 02:36:31;;;;;;;0.40;0.40;;;;;;;18.13;100.00;101780.03;2066075;28;20409;-66
2023/09/02 02:37:31;;;;;;;0.43;0.43;;;;;;;18.36;100.00;101814.06;2066041;28;20421;-66
2023/09/02 02:38:32;;;;;;;0.53;0.40;;;;;;;18.42;100.00;101831.88;2066086;28;20269;-66
2023/09/02 02:39:32;;;;;;;0.60;0.40;;;;;;;18.32;100.00;101821.03;2066048;28;20175;-66
2023/09/02 02:40:33;;;;;;;0.43;0.33;;;;;;;18.43;100.00;101827.84;2070874;28;20232;-66
2023/09/02 02:41:33;;;;;;;0.97;0.73;;;;;;;18.41;100.00;101812.69;2073900;28;20690;-66
2023/09/02 02:42:33;;;;;;;0.30;0.30;;;;;;;18.42;100.00;101829.06;2074223;28;20232;-66
2023/09/02 02:43:35;;;;;;;0.50;0.40;;;;;;;18.43;100.00;101822.22;2074025;28;20176;-67
2023/09/02 02:44:35;;;;;;;0.50;0.50;;;;;;;18.43;100.00;101819.41;2074127;28;20323;-66
2023/09/02 02:45:36;;;;;;;0.33;0.33;;;;;;;18.43;100.00;101816.59;2074085;28;20413;-66
2023/09/02 02:46:36;;;;;;;0.30;0.30;;;;;;;18.41;100.00;101819.09;2074109;28;20177;-66
2023/09/02 02:47:37;;;;;;;0.70;0.70;;;;;;;18.43;100.00;101815.84;2074136;28;20174;-66
2023/09/02 02:48:37;;;;;;;0.80;0.60;;;;;;;18.43;100.00;101836.25;2074161;28;20243;-66
2023/09/02 02:49:37;;;;;;;2.10;0.97;;;;;;;18.43;100.00;101815.84;2074110;28;20703;-66
2023/09/02 02:50:38;;;;;;;0.60;0.60;;;;;;;18.42;100.00;101819.91;2073985;28;20186;-66
2023/09/02 02:51:38;;;;;;;1.50;0.20;;;;;;;18.39;100.00;101817.97;2073957;28;20174;-66
2023/09/02 02:52:39;;;;;;;0.40;0.40;;;;;;;18.29;100.00;101819.94;2074127;28;20178;-66
2023/09/02 02:53:39;;;;;;;0.30;0.30;;;;;;;18.27;100.00;101823.19;2074050;28;20181;-66
2023/09/02 02:54:40;;;;;;;0.60;0.60;;;;;;;18.26;100.00;101817.25;2073445;28;20205;-67
2023/09/02 02:55:41;;;;;;;0.73;0.60;;;;;;;18.25;100.00;101819.28;2073318;28;20252;-66
2023/09/02 02:56:42;;;;;;;0.57;0.50;;;;;;;18.20;100.00;101819.84;2074133;28;20685;-66
2023/09/02 02:57:44;;;;;;;1.17;0.80;;;;;;;18.28;100.00;101816.31;2073947;28;20810;-66
2023/09/02 02:58:44;;;;;;;0.33;0.33;;;;;;;18.29;100.00;101817.88;2074026;28;20552;-66
2023/09/02 02:59:45;;;;;;;0.67;0.67;;;;;;;18.31;100.00;101819.47;2074019;28;20440;-66
2023/09/02 03:00:49;;;;;;;0.50;0.47;;;;;;;18.33;100.00;101825.44;2073986;28;20252;-66
2023/09/02 03:01:51;;;;;;;0.67;0.43;;;;;;;18.35;100.00;101812.50;2072978;28;20532;-66
2023/09/02 03:02:52;;;;;;;0.30;0.30;;;;;;;18.36;100.00;101822.50;2073767;28;20455;-66
2023/09/02 03:03:52;;;;;;;0.27;0.27;;;;;;;18.36;100.00;101819.69;2073997;28;20452;-67
2023/09/02 03:04:53;;;;;;;0.77;0.77;;;;;;;18.38;100.00;101816.44;2074011;28;20413;-66
2023/09/02 03:05:53;;;;;;;0.63;0.60;;;;;;;18.38;100.00;101828.41;2074041;28;20545;-66
2023/09/02 03:06:54;;;;;;;0.63;0.63;;;;;;;18.37;100.00;101824.06;2073950;28;20609;-66
2023/09/02 03:07:54;;;;;;;3.43;1.40;;;;;;;18.35;100.00;101820.13;2074041;28;20627;-66
2023/09/02 03:08:54;;;;;;;0.40;0.40;;;;;;;18.32;100.00;101821.84;2073894;28;20552;-66
2023/09/02 03:09:55;;;;;;;0.30;0.30;;;;;;;18.30;100.00;101827.09;2068841;28;20190;-66
2023/09/02 03:10:57;;;;;;;0.50;0.50;;;;;;;18.28;100.00;101835.19;2065879;28;20171;-67
2023/09/02 03:11:57;;;;;;;0.20;0.20;;;;;;;18.27;100.00;101834.41;2067571;28;20201;-68
2023/09/02 03:12:58;;;;;;;0.47;0.47;;;;;;;18.27;100.00;101835.66;2073401;28;20412;-66
2023/09/02 03:13:59;;;;;;;0.20;0.20;;;;;;;18.27;100.00;101836.41;2067656;28;20175;-67
2023/09/02 03:14:59;;;;;;;1.33;1.23;;;;;;;18.27;100.00;101834.41;2081257;28;20760;-66
2023/09/02 03:16:02;;;;;;;0.40;0.30;;;;;;;18.30;100.00;101835.53;2081559;28;20659;-66
2023/09/02 03:17:03;;;;;;;0.60;0.60;;;;;;;18.31;100.00;101837.06;2073889;28;20177;-66
2023/09/02 03:18:04;;;;;;;0.53;0.40;;;;;;;18.32;100.00;101838.66;2073872;28;20424;-66
2023/09/02 03:19:04;;;;;;;0.40;0.30;;;;;;;18.30;100.00;101832.72;2073911;28;20174;-66
2023/09/02 03:20:06;;;;;;;0.23;0.23;;;;;;;18.29;100.00;101833.97;2073943;28;20249;-67
2023/09/02 03:21:07;;;;;;;2.67;1.40;;;;;;;18.29;100.00;101837.53;2073805;28;20560;-67
2023/09/02 03:22:07;;;;;;;0.20;0.20;;;;;;;18.32;100.00;101837.88;2073930;28;20791;-67
2023/09/02 03:23:08;;;;;;;0.40;0.40;;;;;;;18.35;100.00;101831.38;2073734;28;20506;-67
2023/09/02 03:24:08;;;;;;;12.80;3.20;;;;;;;18.34;100.00;101830.59;2073765;28;20643;-66
2023/09/02 03:25:09;;;;;;;0.63;0.63;;;;;;;17.40;100.00;101686.13;2073809;28;20169;-67
2023/09/02 03:26:11;;;;;;;0.30;0.30;;;;;;;18.35;100.00;101837.78;2073815;28;20256;-67
2023/09/02 03:27:11;;;;;;;0.80;0.50;;;;;;;18.30;100.00;101835.53;2073743;28;20479;-67
2023/09/02 03:28:12;;;;;;;0.43;0.30;;;;;;;18.22;100.00;101833.44;2073837;28;20958;-66
2023/09/02 03:29:13;;;;;;;0.50;0.50;;;;;;;18.27;100.00;101837.22;2073829;28;20263;-66
2023/09/02 03:30:14;;;;;;;0.23;0.23;;;;;;;18.23;100.00;101842.16;2073786;28;21024;-66
2023/09/02 03:31:14;;;;;;;0.83;0.40;;;;;;;18.17;100.00;101835.56;2073842;28;20224;-66
2023/09/02 03:32:14;;;;;;;0.30;0.30;;;;;;;18.18;100.00;101841.97;2073791;28;20209;-66
2023/09/02 03:33:15;;;;;;;0.87;0.30;;;;;;;18.18;100.00;101842.75;2073747;28;20228;-66
2023/09/02 03:34:15;;;;;;;0.77;0.50;;;;;;;18.20;100.00;101839.50;2073798;28;20181;-67
2023/09/02 03:35:16;;;;;;;0.43;0.43;;;;;;;18.20;100.00;101847.91;2073735;28;20170;-67
2023/09/02 03:36:17;;;;;;;0.67;0.60;;;;;;;18.12;100.00;101852.19;2073715;28;20177;-66
2023/09/02 03:37:17;;;;;;;0.40;0.40;;;;;;;18.07;100.00;101849.97;2073729;28;20663;-66
2023/09/02 03:38:18;;;;;;;0.20;0.20;;;;;;;18.06;100.00;101850.44;2073691;28;20776;-67
2023/09/02 03:39:18;;;;;;;0.40;0.40;;;;;;;18.06;100.00;101839.22;2073756;28;20172;-67
2023/09/02 03:40:18;;;;;;;0.50;0.40;;;;;;;18.12;100.00;101851.44;2065660;28;20249;-66
2023/09/02 03:41:20;;;;;;;0.53;0.37;;;;;;;18.14;100.00;101846.94;2065558;28;20171;-66
2023/09/02 03:42:21;;;;;;;0.30;0.30;;;;;;;18.16;100.00;101849.28;2065564;28;20253;-66
2023/09/02 03:43:22;;;;;;;0.23;0.23;;;;;;;18.17;100.00;101852.41;2068799;28;20930;-67
2023/09/02 03:44:22;;;;;;;0.57;0.57;;;;;;;18.17;100.00;101849.59;2073712;28;20182;-67
2023/09/02 03:45:23;;;;;;;0.40;0.40;;;;;;;18.11;100.00;101833.78;2073596;28;20177;-67
2023/09/02 03:46:25;;;;;;;0.50;0.40;;;;;;;18.17;100.00;101855.22;2073756;28;20177;-66
2023/09/02 03:47:33;;;;;;;0.20;0.20;;;;;;;18.18;100.00;101853.97;2073722;28;20651;-66
2023/09/02 03:48:33;;;;;;;0.60;0.57;;;;;;;18.17;100.00;101842.44;2073658;28;20421;-66
2023/09/02 03:49:34;;;;;;;0.30;0.30;;;;;;;18.17;100.00;101839.63;2073631;28;20449;-66
2023/09/02 03:51:03;;;;;;;0.50;0.50;;;;;;;18.24;100.00;101846.53;2073642;28;20263;-66
2023/09/02 03:52:04;;;;;;;0.17;0.17;;;;;;;18.24;100.00;101852.16;2073739;28;20153;-66
2023/09/02 03:53:04;;;;;;;0.37;0.33;;;;;;;18.24;100.00;101842.97;2073690;28;20416;-66
2023/09/02 03:54:05;;;;;;;1.07;0.47;;;;;;;18.24;100.00;101845.75;2073652;28;20181;-66
2023/09/02 03:55:05;;;;;;;0.30;0.20;;;;;;;18.23;100.00;101851.81;2073688;28;20249;-66
2023/09/02 03:56:06;;;;;;;0.27;0.27;;;;;;;18.23;100.00;101851.81;2073642;28;20613;-66
2023/09/02 03:57:06;;;;;;;0.90;0.90;;;;;;;18.23;100.00;101853.38;2073565;28;20180;-67
2023/09/02 03:58:07;;;;;;;0.30;0.30;;;;;;;18.26;100.00;101853.72;2073703;28;20196;-66
2023/09/02 03:59:07;;;;;;;0.40;0.27;;;;;;;18.27;100.00;101854.06;2072977;28;20309;-67
2023/09/02 04:00:08;;;;;;;0.20;0.20;;;;;;;18.28;100.00;101850.00;2073059;28;20762;-66
2023/09/02 04:01:09;;;;;;;0.93;0.80;;;;;;;18.31;100.00;101856.72;2073534;28;20232;-66
2023/09/02 04:02:09;;;;;;;0.30;0.30;;;;;;;18.33;100.00;101853.50;2073583;28;20482;-67
2023/09/02 04:03:10;;;;;;;0.20;0.20;;;;;;;18.33;100.00;101850.69;2073658;28;20249;-66
2023/09/02 04:04:10;;;;;;;0.40;0.40;;;;;;;18.13;100.00;101828.53;2073467;28;20174;-66
2023/09/02 04:05:11;;;;;;;0.83;0.80;;;;;;;18.32;100.00;101854.72;2073521;28;20193;-66
2023/09/02 04:06:11;;;;;;;0.33;0.33;;;;;;;18.28;100.00;101857.66;2071911;28;20185;-66
2023/09/02 04:07:12;;;;;;;0.63;0.40;;;;;;;18.31;100.00;101856.72;2065461;28;20174;-66
2023/09/02 04:08:13;;;;;;;0.87;0.57;;;;;;;18.31;100.00;101858.75;2065440;28;20230;-67
2023/09/02 04:09:13;;;;;;;0.63;0.63;;;;;;;18.26;100.00;101860.09;2065281;28;20229;-66
2023/09/02 04:10:13;;;;;;;0.40;0.40;;;;;;;18.19;100.00;101843.53;2065453;28;20213;-66
2023/09/02 04:11:15;;;;;;;0.30;0.30;;;;;;;18.27;100.00;101859.66;2065338;28;20240;-66
2023/09/02 04:12:15;;;;;;;1.00;0.70;;;;;;;18.29;100.00;101859.22;2065396;28;20176;-66
2023/09/02 04:13:16;;;;;;;0.37;0.37;;;;;;;18.29;100.00;101859.97;2065233;28;20420;-67
2023/09/02 04:14:16;;;;;;;0.30;0.30;;;;;;;18.31;100.00;101862.34;2065398;28;20535;-67
2023/09/02 04:15:18;;;;;;;0.63;0.50;;;;;;;18.29;100.00;101865.59;2064449;28;20706;-66
2023/09/02 04:16:18;;;;;;;0.30;0.30;;;;;;;18.33;100.00;101870.34;2064784;28;20612;-66
2023/09/02 04:17:19;;;;;;;0.70;0.70;;;;;;;18.33;100.00;101873.94;2068613;28;20591;-66
2023/09/02 04:18:19;;;;;;;0.57;0.57;;;;;;;17.80;100.00;101792.88;2079412;28;20242;-67
2023/09/02 04:19:20;;;;;;;0.20;0.20;;;;;;;18.36;100.00;101875.03;2067622;28;20192;-66
2023/09/02 04:20:23;;;;;;;0.40;0.40;;;;;;;18.38;100.00;101873.31;2065356;28;20225;-66
2023/09/02 04:21:24;;;;;;;0.63;0.30;;;;;;;18.37;100.00;101868.97;2065337;28;20174;-66
2023/09/02 04:22:27;;;;;;;0.37;0.30;;;;;;;18.13;100.00;101834.16;2065350;28;20930;-66
2023/09/02 04:23:27;;;;;;;0.43;0.40;;;;;;;18.40;100.00;101873.66;2065290;28;20174;-66
2023/09/02 04:24:28;;;;;;;0.30;0.30;;;;;;;18.41;100.00;101874.44;2065280;28;20423;-66
2023/09/02 04:25:29;;;;;;;0.30;0.30;;;;;;;18.40;100.00;101870.88;2065296;28;20180;-66
2023/09/02 04:26:29;;;;;;;0.30;0.30;;;;;;;18.40;100.00;101876.47;2065327;28;20922;-67
2023/09/02 04:27:30;;;;;;;0.40;0.40;;;;;;;18.38;100.00;101870.53;2065323;28;20179;-66
2023/09/02 04:28:30;;;;;;;0.67;0.67;;;;;;;18.40;100.00;101859.63;2066926;28;20565;-66
2023/09/02 04:29:30;;;;;;;0.30;0.30;;;;;;;18.39;100.00;101868.50;2072553;28;20291;-66
2023/09/02 04:30:31;;;;;;;0.30;0.30;;;;;;;18.42;100.00;101873.97;2072920;28;20254;-66
2023/09/02 04:31:31;;;;;;;0.60;0.60;;;;;;;18.42;100.00;101873.22;2072667;28;20335;-66
2023/09/02 04:32:32;;;;;;;0.30;0.30;;;;;;;18.42;100.00;101870.41;2072831;28;20232;-66
2023/09/02 04:33:32;;;;;;;0.43;0.43;;;;;;;18.41;100.00;101869.63;2073041;28;20263;-66
2023/09/02 04:34:33;;;;;;;0.50;0.50;;;;;;;18.41;100.00;101878.03;2073396;28;20232;-67
2023/09/02 04:35:41;;;;;;;0.37;0.30;;;;;;;17.94;100.00;101813.53;2073326;28;20228;-67
2023/09/02 04:36:42;;;;;;;0.37;0.37;;;;;;;18.37;100.00;101871.75;2073355;28;20178;-66
2023/09/02 04:37:42;;;;;;;0.27;0.27;;;;;;;18.37;100.00;101866.16;2073351;28;20922;-66
2023/09/02 04:38:43;;;;;;;0.60;0.50;;;;;;;17.73;100.00;101782.69;2073370;28;20579;-66
2023/09/02 04:39:43;;;;;;;0.73;0.73;;;;;;;18.41;100.00;101874.44;2073319;28;20723;-66
2023/09/02 04:40:44;;;;;;;0.30;0.30;;;;;;;17.88;100.00;101794.97;2073297;28;20177;-66
2023/09/02 04:41:45;;;;;;;0.37;0.20;;;;;;;18.43;100.00;101880.41;2073327;28;20177;-66
2023/09/02 04:42:45;;;;;;;0.50;0.40;;;;;;;18.41;100.00;101878.03;2073181;28;20412;-66
2023/09/02 04:43:45;;;;;;;0.40;0.23;;;;;;;18.40;100.00;101882.09;2073329;28;20178;-66